Time;durP1;ratioP1;P1;durP2;ratioP2;P2;SDS_P1;SDS_P2;PMS_P1;PMS_P2;Temp;Humidity;BMP_temperature;BMP_pressure;BME280_temperature;BME280_humidity;BME280_pressure;Samples;Min_cycle;Max_cycle;Signal;HPM_P1;HPM_P2
2022/04/01 00:02:28;;;;;;;2.15;1.13;;;17.00;52.90;;;;;;10414814;28;20037;-59
2022/04/01 00:07:29;;;;;;;2.40;1.38;;;17.00;53.00;;;;;;10414467;28;20565;-59
2022/04/01 00:12:30;;;;;;;1.73;1.10;;;17.00;53.60;;;;;;10411133;28;20108;-59
2022/04/01 00:17:31;;;;;;;2.15;1.20;;;17.00;52.80;;;;;;10373597;28;20034;-59
2022/04/01 00:22:32;;;;;;;1.67;1.15;;;17.00;53.40;;;;;;10373344;28;20065;-59
2022/04/01 00:27:33;;;;;;;2.55;1.05;;;17.00;52.70;;;;;;10373340;28;20029;-59
2022/04/01 00:32:34;;;;;;;2.20;1.13;;;17.00;52.60;;;;;;10373096;28;20076;-59
2022/04/01 00:37:35;;;;;;;1.35;0.98;;;17.00;52.50;;;;;;10355417;28;20526;-59
2022/04/01 00:42:36;;;;;;;2.40;1.23;;;17.00;52.40;;;;;;10372953;28;20205;-59
2022/04/01 00:47:38;;;;;;;2.00;1.15;;;17.00;52.40;;;;;;10372747;28;20026;-59
2022/04/01 00:52:42;;;;;;;1.30;1.02;;;17.00;52.40;;;;;;10390197;28;20030;-59
2022/04/01 00:57:43;;;;;;;2.22;1.05;;;16.90;52.60;;;;;;10394836;28;20037;-58
2022/04/01 01:02:43;;;;;;;2.40;1.27;;;17.00;52.50;;;;;;10413250;28;20104;-59
2022/04/01 01:07:44;;;;;;;1.60;1.20;;;17.00;52.40;;;;;;10412863;28;20112;-58
2022/04/01 01:12:45;;;;;;;1.40;0.80;;;17.00;52.90;;;;;;10373981;28;20502;-59
2022/04/01 01:17:47;;;;;;;1.50;0.82;;;17.00;52.20;;;;;;10382674;28;20426;-58
2022/04/01 01:22:49;;;;;;;1.42;0.88;;;17.00;52.10;;;;;;10376658;28;20044;-59
2022/04/01 01:27:50;;;;;;;1.25;0.80;;;17.00;52.20;;;;;;10362579;28;20479;-58
2022/04/01 01:32:50;;;;;;;1.27;0.82;;;17.00;52.20;;;;;;10413964;28;20061;-58
2022/04/01 01:37:51;;;;;;;1.25;0.77;;;17.00;52.10;;;;;;10419804;28;20065;-59
2022/04/01 01:42:52;;;;;;;1.50;0.90;;;17.00;52.20;;;;;;10420451;28;20108;-59
2022/04/01 01:47:52;;;;;;;1.42;0.90;;;17.00;52.20;;;;;;10418200;28;20061;-59
2022/04/01 01:58:20;;;;;;;1.38;0.75;;;17.00;52.00;;;;;;10380290;28;20038;-58
2022/04/01 02:03:20;;;;;;;1.73;0.80;;;17.10;51.90;;;;;;10394084;28;20022;-59
2022/04/01 02:08:21;;;;;;;2.42;0.90;;;17.00;51.90;;;;;;10378325;28;20553;-58
2022/04/01 02:13:23;;;;;;;1.70;0.93;;;17.10;51.90;;;;;;10374130;28;20030;-58
2022/04/01 02:18:24;;;;;;;1.50;0.80;;;17.00;51.90;;;;;;10373724;28;20040;-58
2022/04/01 02:23:25;;;;;;;1.38;0.80;;;17.00;51.80;;;;;;10377951;28;20390;-58
2022/04/01 02:28:26;;;;;;;1.17;0.82;;;17.00;51.90;;;;;;10372875;28;20053;-59
2022/04/01 02:33:27;;;;;;;1.38;0.73;;;17.00;51.80;;;;;;10415419;28;20053;-58
2022/04/01 02:38:30;;;;;;;1.40;0.80;;;17.00;51.90;;;;;;10387647;28;20032;-59
2022/04/01 02:43:31;;;;;;;1.50;0.85;;;17.00;51.90;;;;;;10417277;28;20112;-59
2022/04/01 02:48:32;;;;;;;1.23;0.80;;;17.00;51.80;;;;;;10418051;28;20116;-59
2022/04/01 02:53:33;;;;;;;1.27;0.85;;;17.00;51.60;;;;;;10403630;28;20036;-59
2022/04/01 02:58:34;;;;;;;0.98;0.80;;;17.10;51.60;;;;;;10402961;28;20101;-59
2022/04/01 03:03:35;;;;;;;1.10;0.68;;;17.10;51.50;;;;;;10417667;28;20492;-58
2022/04/01 03:08:36;;;;;;;0.90;0.60;;;17.00;51.60;;;;;;10416906;28;20080;-59
2022/04/01 03:13:36;;;;;;;2.17;0.80;;;17.00;51.50;;;;;;10416275;28;20378;-59
2022/04/01 03:18:40;;;;;;;0.68;0.50;;;17.00;51.70;;;;;;10416020;28;20057;-59
2022/04/01 03:23:43;;;;;;;1.17;0.70;;;17.00;51.50;;;;;;10416925;28;20033;-59
2022/04/01 03:28:46;;;;;;;0.95;0.82;;;17.00;51.70;;;;;;10415664;28;20068;-58
2022/04/01 03:33:47;;;;;;;0.75;0.63;;;17.00;51.60;;;;;;10413493;28;20052;-59
2022/04/01 03:38:47;;;;;;;0.82;0.52;;;17.00;51.50;;;;;;10382571;28;20116;-59
2022/04/01 03:43:49;;;;;;;0.90;0.68;;;17.00;51.50;;;;;;10371245;28;20526;-59
2022/04/01 03:48:59;;;;;;;1.15;0.75;;;17.00;51.40;;;;;;10371409;28;20033;-59
2022/04/01 03:54:03;;;;;;;1.17;0.60;;;17.00;51.50;;;;;;10387029;28;20046;-59
2022/04/01 03:59:09;;;;;;;1.25;0.70;;;17.00;51.40;;;;;;10391851;28;20108;-58
2022/04/01 04:04:10;;;;;;;1.20;1.00;;;17.00;51.40;;;;;;10415023;28;20129;-58
2022/04/01 04:09:12;;;;;;;1.20;1.10;;;17.00;51.40;;;;;;10414538;28;20375;-58
2022/04/01 04:14:16;;;;;;;1.40;0.73;;;17.10;51.40;;;;;;10383682;28;20033;-59
2022/04/01 04:19:35;;;;;;;1.15;0.75;;;17.00;51.20;;;;;;10382707;28;20021;-58
2022/04/01 04:24:41;;;;;;;1.73;0.65;;;17.00;51.20;;;;;;10371130;28;20511;-58
2022/04/01 04:29:49;;;;;;;0.65;0.52;;;17.00;51.20;;;;;;10380139;28;20109;-57
2022/04/01 04:34:51;;;;;;;0.80;0.60;;;17.10;51.20;;;;;;10368983;28;20508;-58
2022/04/01 04:39:53;;;;;;;1.25;0.70;;;17.10;51.20;;;;;;10370417;28;20026;-59
2022/04/01 04:44:54;;;;;;;1.88;0.70;;;17.00;51.10;;;;;;10382814;28;20117;-59
2022/04/01 04:49:57;;;;;;;1.42;0.80;;;17.00;51.10;;;;;;10412735;28;20393;-59
2022/04/01 04:55:00;;;;;;;1.83;0.90;;;17.10;51.00;;;;;;10360239;28;20034;-59
2022/04/01 05:00:01;;;;;;;1.63;0.80;;;17.10;51.10;;;;;;10397465;28;20030;-58
2022/04/01 05:05:21;;;;;;;1.05;0.68;;;17.10;50.90;;;;;;10412185;28;20076;-58
2022/04/01 05:10:29;;;;;;;1.40;0.60;;;17.10;50.90;;;;;;10381576;28;20100;-59
2022/04/01 05:15:34;;;;;;;4.43;1.10;;;17.10;50.90;;;;;;10381163;28;20033;-58
2022/04/01 05:20:40;;;;;;;5.18;0.95;;;17.10;51.10;;;;;;10412035;28;20061;-58
2022/04/01 05:26:14;;;;;;;5.40;1.00;;;17.10;52.20;;;;;;10381534;28;20114;-57
2022/04/01 05:31:52;;;;;;;6.70;1.50;;;17.10;52.90;;;;;;10394541;28;20065;-57
2022/04/01 05:36:55;;;;;;;8.55;1.20;;;17.20;52.00;;;;;;10383558;28;20026;-57
2022/04/01 05:41:56;;;;;;;8.55;1.33;;;17.10;53.00;;;;;;10361181;28;20436;-59
2022/04/01 05:47:00;;;;;;;10.68;2.05;;;16.90;53.00;;;;;;10386264;28;20109;-60
2022/04/01 05:52:02;;;;;;;8.23;1.55;;;17.00;52.80;;;;;;10375246;28;20474;-61
2022/04/01 05:57:04;;;;;;;12.85;2.17;;;17.00;52.50;;;;;;10383968;28;20038;-63
2022/04/01 06:02:23;;;;;;;9.55;1.50;;;17.00;52.00;;;;;;10383923;28;20117;-61
2022/04/01 06:07:31;;;;;;;7.22;1.88;;;16.90;51.80;;;;;;10393900;28;20049;-62
2022/04/01 06:12:56;;;;;;;9.65;1.70;;;17.00;51.50;;;;;;10380037;28;20033;-60
2022/04/01 06:18:19;;;;;;;8.30;2.08;;;16.90;51.80;;;;;;10378209;28;20061;-61
2022/04/01 06:23:59;;;;;;;9.02;1.95;;;16.90;50.80;;;;;;10415782;28;20537;-60
2022/04/01 06:29:38;;;;;;;13.52;2.65;;;17.00;51.20;;;;;;10382443;28;20030;-59
2022/04/01 06:35:10;;;;;;;11.95;2.20;;;17.10;52.20;;;;;;10379109;28;20107;-59
2022/04/01 06:40:12;;;;;;;13.98;2.42;;;17.00;52.30;;;;;;10417592;28;20469;-60
2022/04/01 06:45:15;;;;;;;8.80;2.00;;;17.10;52.10;;;;;;10398294;28;20037;-60
2022/04/01 06:50:16;;;;;;;7.13;1.73;;;17.00;52.30;;;;;;10405353;28;20022;-61
2022/04/01 06:55:17;;;;;;;16.90;2.50;;;17.00;52.40;;;;;;10383662;28;20474;-59
2022/04/01 07:00:18;;;;;;;9.52;2.05;;;17.00;52.90;;;;;;10403510;28;20049;-60
2022/04/01 07:05:19;;;;;;;11.48;3.15;;;17.00;53.10;;;;;;10385823;28;20034;-60
2022/04/01 07:10:20;;;;;;;14.48;3.13;;;17.00;53.50;;;;;;10401780;28;20554;-59
2022/04/01 07:15:21;;;;;;;11.60;2.22;;;17.00;53.80;;;;;;10376451;28;20041;-59
2022/04/01 07:20:21;;;;;;;7.32;2.58;;;17.10;54.20;;;;;;10369973;28;20034;-57
2022/04/01 07:25:23;;;;;;;23.50;3.50;;;17.00;54.30;;;;;;10387698;28;20087;-58
2022/04/01 07:30:25;;;;;;;26.67;4.40;;;16.90;54.60;;;;;;10410804;28;20033;-54
2022/04/01 07:35:27;;;;;;;24.73;4.00;;;16.90;55.00;;;;;;10384492;28;20029;-60
2022/04/01 07:40:27;;;;;;;11.57;2.47;;;17.10;54.80;;;;;;10383259;28;20037;-59
2022/04/01 07:45:33;;;;;;;18.27;3.17;;;17.20;55.00;;;;;;10356459;28;20032;-59
2022/04/01 07:50:33;;;;;;;14.25;3.33;;;17.20;54.70;;;;;;10373728;28;20021;-58
2022/04/01 07:55:34;;;;;;;16.70;2.65;;;17.10;55.00;;;;;;10375752;28;20459;-58
2022/04/01 08:00:35;;;;;;;17.45;3.17;;;17.00;55.30;;;;;;10382027;28;20038;-58
2022/04/01 08:05:36;;;;;;;10.48;2.22;;;16.90;55.30;;;;;;10369081;28;20434;-58
2022/04/01 08:10:36;;;;;;;6.63;1.75;;;16.90;56.00;;;;;;10373025;28;20045;-60
2022/04/01 08:15:37;;;;;;;13.18;2.20;;;16.80;55.90;;;;;;10372784;28;20383;-60
2022/04/01 08:20:38;;;;;;;8.63;1.80;;;16.70;56.00;;;;;;10368318;28;20105;-60
2022/04/01 08:25:39;;;;;;;8.88;1.83;;;16.70;56.00;;;;;;10372482;28;20030;-61
2022/04/01 08:30:41;;;;;;;9.50;1.90;;;16.70;55.60;;;;;;10375334;28;20037;-63
2022/04/01 08:35:41;;;;;;;11.98;2.28;;;16.80;55.60;;;;;;10369160;28;20061;-63
2022/04/01 08:40:43;;;;;;;11.70;3.67;;;16.90;55.30;;;;;;10356818;28;20397;-68
2022/04/01 08:45:44;;;;;;;14.50;2.47;;;17.10;55.00;;;;;;10380935;28;20029;-61
2022/04/01 08:50:45;;;;;;;23.13;3.38;;;17.40;54.30;;;;;;10367545;28;20113;-61
2022/04/01 08:55:48;;;;;;;18.02;2.22;;;17.50;54.00;;;;;;10389490;28;20022;-62
2022/04/01 09:00:51;;;;;;;15.27;2.60;;;17.60;53.50;;;;;;10371054;28;20033;-62
2022/04/01 09:06:00;;;;;;;10.95;1.98;;;17.80;52.40;;;;;;10365840;28;20034;-61
2022/04/01 09:11:03;;;;;;;8.23;1.83;;;18.00;51.60;;;;;;10371119;28;20044;-61
2022/04/01 09:16:04;;;;;;;8.80;2.25;;;18.10;51.20;;;;;;10367131;28;20025;-61
2022/04/01 09:21:08;;;;;;;10.73;1.83;;;18.20;50.70;;;;;;10371869;28;20030;-61
2022/04/01 09:26:08;;;;;;;8.10;1.77;;;18.20;50.60;;;;;;10371142;28;20037;-62
2022/04/01 09:31:15;;;;;;;6.65;1.42;;;18.20;50.40;;;;;;10367052;28;20033;-61
2022/04/01 09:36:36;;;;;;;6.13;1.60;;;18.30;50.10;;;;;;10366242;28;20557;-61
2022/04/01 09:41:50;;;;;;;5.40;1.45;;;18.30;50.00;;;;;;10369901;28;20109;-61
2022/04/01 09:46:57;;;;;;;6.68;1.60;;;18.40;49.80;;;;;;10374583;28;20034;-61
2022/04/01 09:51:58;;;;;;;3.85;1.38;;;18.40;49.60;;;;;;10387891;28;20021;-62
2022/04/01 09:57:00;;;;;;;5.93;2.05;;;18.50;49.30;;;;;;10366653;28;20050;-61
2022/04/01 10:02:01;;;;;;;4.10;1.08;;;18.50;49.20;;;;;;10378068;28;20459;-61
2022/04/01 10:07:03;;;;;;;4.38;1.10;;;18.60;49.10;;;;;;10377804;28;20072;-59
2022/04/01 10:12:13;;;;;;;12.52;1.95;;;18.70;48.80;;;;;;10363850;28;20041;-60
2022/04/01 10:17:15;;;;;;;16.92;2.33;;;18.60;49.00;;;;;;10373607;28;20053;-58
2022/04/01 10:22:16;;;;;;;23.83;2.88;;;18.60;49.50;;;;;;10372805;28;20026;-57
2022/04/01 10:27:55;;;;;;;12.43;2.10;;;18.70;49.90;;;;;;10359989;28;20113;-58
2022/04/01 10:32:56;;;;;;;15.15;2.05;;;18.90;51.00;;;;;;10406138;28;20052;-57
2022/04/01 10:38:06;;;;;;;9.23;1.75;;;19.00;51.70;;;;;;10383247;28;20108;-59
2022/04/01 10:43:18;;;;;;;8.73;2.13;;;19.00;51.90;;;;;;10412473;28;20037;-58
2022/04/01 10:53:45;;;;;;;9.00;2.05;;;18.90;53.00;;;;;;10376353;28;20070;-59
2022/04/01 10:59:11;;;;;;;6.55;1.98;;;18.80;53.20;;;;;;10364967;28;20036;-60
2022/04/01 11:04:12;;;;;;;6.93;2.20;;;18.60;54.10;;;;;;10359562;28;20033;-61
2022/04/01 11:09:40;;;;;;;14.80;2.97;;;18.60;53.70;;;;;;10371521;28;20141;-60
2022/04/01 11:15:11;;;;;;;8.95;2.10;;;18.50;53.60;;;;;;10381927;28;20120;-59
2022/04/01 11:20:17;;;;;;;11.15;1.70;;;18.50;53.80;;;;;;10415915;28;20037;-63
2022/04/01 11:25:32;;;;;;;5.38;1.90;;;18.50;53.80;;;;;;10385344;28;20040;-61
2022/04/01 11:30:40;;;;;;;7.88;1.75;;;18.50;53.50;;;;;;10382416;28;20482;-59
2022/04/01 11:35:46;;;;;;;10.35;3.55;;;18.40;53.10;;;;;;10375153;28;20103;-60
2022/04/01 11:40:50;;;;;;;8.40;2.67;;;18.40;52.70;;;;;;10384318;28;20045;-63
2022/04/01 11:46:06;;;;;;;6.20;2.53;;;18.30;50.90;;;;;;10376887;28;20065;-60
2022/04/01 11:51:18;;;;;;;10.35;2.35;;;18.30;51.80;;;;;;10367908;28;20052;-60
2022/04/01 11:56:23;;;;;;;11.75;2.40;;;18.40;52.20;;;;;;10375754;28;20030;-60
2022/04/01 12:01:56;;;;;;;12.90;2.30;;;18.40;52.20;;;;;;10384159;28;20030;-60
2022/04/01 12:12:33;;;;;;;17.98;2.92;;;18.30;52.30;;;;;;10372902;28;20042;-60
2022/04/01 12:17:49;;;;;;;38.20;6.10;;;18.30;52.30;;;;;;10373763;28;20374;-59
2022/04/01 12:22:55;;;;;;;29.55;6.63;;;18.40;53.40;;;;;;10370942;28;20382;-60
2022/04/01 12:28:05;;;;;;;27.92;5.93;;;18.40;53.10;;;;;;10352082;28;20029;-60
2022/04/01 12:33:10;;;;;;;21.02;4.13;;;18.50;52.90;;;;;;10381921;28;20033;-61
2022/04/01 12:38:11;;;;;;;22.48;5.85;;;18.30;53.60;;;;;;10382717;28;20666;-61
2022/04/01 12:43:47;;;;;;;27.38;5.03;;;18.10;54.10;;;;;;10376629;28;20033;-60
2022/04/01 12:49:00;;;;;;;34.17;8.63;;;18.00;54.60;;;;;;10371341;28;20026;-58
2022/04/01 12:54:10;;;;;;;31.85;6.43;;;18.00;54.50;;;;;;10368512;28;20045;-59
2022/04/01 12:59:16;;;;;;;28.73;5.85;;;18.00;54.40;;;;;;10377235;28;20111;-59
2022/04/01 13:04:20;;;;;;;26.38;5.65;;;18.10;53.40;;;;;;10413116;28;20080;-57
2022/04/01 13:09:21;;;;;;;18.63;5.45;;;18.00;53.50;;;;;;10382008;28;20041;-60
2022/04/01 13:14:27;;;;;;;24.75;5.75;;;18.00;52.00;;;;;;10381499;28;20045;-58
2022/04/01 13:19:33;;;;;;;16.33;4.53;;;18.00;51.70;;;;;;10412856;28;20110;-57
2022/04/01 13:24:46;;;;;;;22.48;6.20;;;18.10;51.40;;;;;;10376949;28;20092;-57
2022/04/01 13:29:47;;;;;;;16.85;4.03;;;18.30;50.90;;;;;;10414940;28;20040;-56
2022/04/01 13:34:48;;;;;;;13.00;4.07;;;18.30;50.80;;;;;;10420201;28;20362;-54
2022/04/01 13:39:48;;;;;;;18.30;5.35;;;18.10;50.80;;;;;;10405873;28;20036;-53
2022/04/01 13:44:51;;;;;;;18.95;4.93;;;17.90;51.90;;;;;;10414082;28;20030;-55
2022/04/01 13:49:52;;;;;;;17.95;4.22;;;18.00;52.20;;;;;;10382004;28;20522;-50
2022/04/01 13:54:52;;;;;;;22.48;5.50;;;18.10;52.70;;;;;;10394155;28;20035;-55
2022/04/01 13:59:53;;;;;;;20.60;4.30;;;18.00;52.00;;;;;;10374360;28;20038;-52
2022/04/01 14:04:54;;;;;;;27.52;5.03;;;18.10;52.20;;;;;;10410765;28;20369;-52
2022/04/01 14:09:55;;;;;;;28.20;5.82;;;18.20;52.70;;;;;;10384026;28;20509;-55
2022/04/01 14:14:55;;;;;;;31.63;5.22;;;18.20;53.50;;;;;;10377447;28;20102;-54
2022/04/01 14:19:57;;;;;;;24.02;3.90;;;18.20;53.50;;;;;;10377376;28;20446;-57
2022/04/01 14:24:57;;;;;;;18.38;4.22;;;18.20;54.90;;;;;;10402027;28;20029;-56
2022/04/01 14:30:17;;;;;;;20.02;5.10;;;18.10;55.40;;;;;;10417704;28;20493;-58
2022/04/01 14:35:19;;;;;;;;;;;17.90;55.60;;;;;;10411779;28;20105;-58
2022/04/01 14:40:20;;;;;;;19.63;3.78;;;17.60;57.10;;;;;;10372430;28;19913;-57
2022/04/01 14:45:21;;;;;;;28.52;5.47;;;17.60;56.70;;;;;;10369509;28;20045;-56
2022/04/01 14:50:22;;;;;;;41.83;4.47;;;17.50;57.50;;;;;;10405556;28;20374;-57
2022/04/01 14:55:22;;;;;;;20.38;4.40;;;17.50;57.20;;;;;;10380392;28;20038;-57
2022/04/01 15:00:23;;;;;;;14.90;3.35;;;17.60;56.90;;;;;;10386438;28;20442;-56
2022/04/01 15:05:25;;;;;;;16.40;4.20;;;17.60;56.90;;;;;;10403480;28;20033;-56
2022/04/01 15:10:26;;;;;;;24.83;4.28;;;17.60;56.70;;;;;;10377714;28;20461;-55
2022/04/01 15:15:27;;;;;;;33.78;4.65;;;17.60;56.50;;;;;;10387806;28;20038;-55
2022/04/01 15:20:28;;;;;;;24.70;5.13;;;17.70;56.20;;;;;;10398040;28;20029;-56
2022/04/01 15:25:29;;;;;;;20.90;4.32;;;17.80;55.90;;;;;;10372088;28;20042;-58
2022/04/01 15:30:30;;;;;;;18.60;4.10;;;17.80;55.80;;;;;;10375150;28;20050;-57
2022/04/01 15:35:33;;;;;;;21.38;3.95;;;17.70;55.70;;;;;;10410183;28;20512;-56
2022/04/01 15:40:39;;;;;;;25.13;4.30;;;17.70;57.10;;;;;;10415061;28;20099;-55
2022/04/01 15:45:41;;;;;;;9.65;3.10;;;17.50;56.20;;;;;;10410164;28;20029;-58
2022/04/01 15:50:42;;;;;;;15.32;3.35;;;17.50;55.00;;;;;;10374411;28;20113;-56
2022/04/01 15:55:43;;;;;;;13.70;3.97;;;17.50;54.60;;;;;;10374401;28;20044;-55
2022/04/01 16:00:46;;;;;;;13.35;3.97;;;17.60;55.60;;;;;;10380133;28;20043;-57
2022/04/01 16:05:49;;;;;;;14.15;4.32;;;17.60;54.90;;;;;;10410860;28;20386;-57
2022/04/01 16:10:50;;;;;;;10.15;3.15;;;17.70;54.80;;;;;;10385139;28;20092;-56
2022/04/01 16:15:52;;;;;;;11.82;3.50;;;17.80;57.50;;;;;;10355136;28;20501;-57
2022/04/01 16:20:57;;;;;;;14.55;2.95;;;18.20;58.70;;;;;;10373828;28;20038;-54
2022/04/01 16:25:59;;;;;;;13.45;2.83;;;18.70;55.90;;;;;;10374899;28;20038;-55
2022/04/01 16:30:59;;;;;;;9.10;2.38;;;18.70;55.70;;;;;;10394004;28;20033;-57
2022/04/01 16:36:00;;;;;;;13.68;3.17;;;18.70;55.80;;;;;;10397842;28;20486;-59
2022/04/01 16:41:01;;;;;;;11.98;2.70;;;18.50;56.00;;;;;;10380660;28;20041;-57
2022/04/01 16:46:01;;;;;;;15.60;2.70;;;18.40;56.90;;;;;;10368403;28;20052;-58
2022/04/01 16:51:05;;;;;;;13.13;2.30;;;18.40;58.50;;;;;;10373720;28;20034;-59
2022/04/01 16:56:06;;;;;;;17.85;2.90;;;18.00;58.00;;;;;;10380321;28;20486;-59
2022/04/01 17:01:07;;;;;;;18.75;2.67;;;17.90;58.30;;;;;;10384605;28;20137;-59
2022/04/01 17:16:51;;;;;;;17.40;3.42;;;18.00;57.10;;;;;;10404798;28;20490;-57
2022/04/01 17:21:52;;;;;;;18.60;4.20;;;18.00;56.80;;;;;;10375561;28;20033;-57
2022/04/01 17:26:53;;;;;;;16.58;3.42;;;18.00;56.50;;;;;;10410790;28;20038;-57
2022/04/01 17:31:55;;;;;;;17.25;3.10;;;18.00;56.20;;;;;;10380900;28;20060;-57
2022/04/01 17:36:56;;;;;;;13.32;3.22;;;18.00;56.30;;;;;;10373896;28;20351;-57
2022/04/01 17:41:58;;;;;;;10.57;2.65;;;17.90;55.90;;;;;;10369833;28;20026;-56
2022/04/01 17:46:59;;;;;;;15.40;3.08;;;17.90;56.10;;;;;;10387779;28;20435;-57
2022/04/01 17:52:01;;;;;;;10.95;2.63;;;17.90;55.80;;;;;;10369573;28;20030;-58
2022/04/01 17:57:03;;;;;;;14.35;3.25;;;17.90;55.70;;;;;;10384894;28;20463;-49
2022/04/01 18:02:05;;;;;;;12.98;2.92;;;17.80;55.80;;;;;;10366012;28;20069;-48
2022/04/01 18:07:07;;;;;;;21.55;2.97;;;17.80;55.80;;;;;;10377310;28;20018;-51
2022/04/01 18:12:10;;;;;;;10.02;2.75;;;17.70;56.10;;;;;;10393049;28;20038;-49
2022/04/01 18:17:10;;;;;;;10.93;2.38;;;17.60;56.50;;;;;;10385761;28;20026;-47
2022/04/01 18:22:11;;;;;;;8.63;1.77;;;17.40;56.50;;;;;;10376544;28;20084;-48
2022/04/01 18:27:29;;;;;;;13.18;3.95;;;17.40;56.00;;;;;;10390213;28;20120;-49
2022/04/01 18:32:52;;;;;;;11.15;2.65;;;17.40;56.30;;;;;;10385616;28;20057;-46
2022/04/01 18:37:57;;;;;;;14.23;2.45;;;17.30;56.20;;;;;;10372937;28;20160;-50
2022/04/01 18:43:02;;;;;;;11.88;2.60;;;17.30;56.30;;;;;;10377572;28;20034;-46
2022/04/01 18:48:04;;;;;;;10.80;2.92;;;17.20;56.30;;;;;;10389510;28;20033;-51
2022/04/01 18:53:06;;;;;;;8.50;1.77;;;17.20;56.70;;;;;;10389847;28;20381;-48
2022/04/01 18:58:08;;;;;;;10.95;2.28;;;17.00;56.60;;;;;;10394072;28;20144;-54
2022/04/01 19:03:25;;;;;;;8.45;1.92;;;17.00;56.40;;;;;;10392715;28;20033;-50
2022/04/01 19:09:01;;;;;;;5.50;1.98;;;17.00;56.40;;;;;;10386380;28;20563;-51
2022/04/01 19:14:11;;;;;;;5.32;1.80;;;17.00;56.10;;;;;;10373016;28;20037;-51
2022/04/01 19:19:32;;;;;;;17.05;2.65;;;16.90;56.10;;;;;;10405692;28;20095;-54
2022/04/01 19:24:36;;;;;;;9.63;1.58;;;16.80;56.20;;;;;;10414449;28;20088;-53
2022/04/01 19:29:36;;;;;;;9.35;2.15;;;16.80;56.10;;;;;;10415304;28;20033;-52
2022/04/01 19:34:38;;;;;;;4.53;1.40;;;16.70;56.00;;;;;;10382940;28;20032;-53
2022/04/01 19:39:40;;;;;;;7.00;1.60;;;16.70;56.00;;;;;;10382511;28;20040;-54
2022/04/01 19:44:44;;;;;;;7.75;1.80;;;16.60;55.90;;;;;;10382817;28;20041;-50
2022/04/01 19:49:45;;;;;;;5.38;1.30;;;16.60;55.80;;;;;;10372396;28;20422;-52
2022/04/01 19:54:46;;;;;;;4.88;1.00;;;16.60;55.90;;;;;;10370106;28;20079;-50
2022/04/01 19:59:47;;;;;;;5.68;1.20;;;16.60;55.70;;;;;;10385963;28;20033;-50
2022/04/01 20:04:47;;;;;;;5.80;1.95;;;16.60;55.50;;;;;;10414121;28;20500;-52
2022/04/01 20:09:48;;;;;;;6.03;2.15;;;16.60;55.40;;;;;;10404345;28;20042;-51
2022/04/01 20:14:49;;;;;;;5.93;1.00;;;16.70;55.20;;;;;;10373084;28;20045;-52
2022/04/01 20:19:50;;;;;;;3.03;1.02;;;16.70;55.10;;;;;;10399234;28;20076;-51
2022/04/01 20:24:51;;;;;;;4.10;0.98;;;16.80;54.90;;;;;;10400181;28;20128;-49
2022/04/01 20:29:52;;;;;;;5.80;1.17;;;16.80;54.60;;;;;;10381603;28;20026;-52
2022/04/01 20:34:53;;;;;;;2.03;0.95;;;16.80;54.60;;;;;;10373220;28;20025;-53
2022/04/01 20:39:54;;;;;;;2.65;0.90;;;16.90;54.40;;;;;;10389158;28;20037;-52
2022/04/01 20:44:55;;;;;;;3.05;1.13;;;16.90;54.30;;;;;;10373725;28;20065;-51
2022/04/01 20:49:56;;;;;;;3.08;1.30;;;16.90;54.10;;;;;;10372851;28;20026;-51
2022/04/01 20:54:57;;;;;;;3.17;0.90;;;16.90;54.70;;;;;;10382149;28;20084;-53
2022/04/01 20:59:58;;;;;;;3.97;2.72;;;16.90;54.00;;;;;;10405906;28;20175;-52
2022/04/01 21:04:58;;;;;;;5.07;0.80;;;16.90;54.00;;;;;;10412958;28;20117;-53
2022/04/01 21:10:04;;;;;;;7.88;1.67;;;16.90;53.90;;;;;;10412020;28;20045;-53
2022/04/01 21:15:07;;;;;;;1.67;0.90;;;17.00;53.70;;;;;;10382537;28;20083;-52
2022/04/01 21:20:11;;;;;;;2.67;0.77;;;17.00;53.70;;;;;;10377826;28;20081;-52
2022/04/01 21:25:14;;;;;;;2.28;0.85;;;16.90;53.60;;;;;;10371869;28;20030;-53
2022/04/01 21:30:16;;;;;;;2.42;0.85;;;16.90;53.50;;;;;;10373826;28;20029;-53
2022/04/01 21:35:17;;;;;;;2.25;0.70;;;17.00;53.50;;;;;;10378157;28;20147;-52
2022/04/01 21:40:18;;;;;;;2.33;0.60;;;17.00;53.30;;;;;;10404128;28;20470;-50
2022/04/01 21:45:19;;;;;;;1.48;0.70;;;17.00;53.30;;;;;;10379777;28;20037;-50
2022/04/01 21:50:20;;;;;;;2.20;0.85;;;17.00;53.20;;;;;;10379633;28;20052;-52
2022/04/01 21:55:21;;;;;;;2.75;0.60;;;16.90;53.30;;;;;;10380989;28;20040;-53
2022/04/01 22:00:43;;;;;;;2.95;1.08;;;16.90;53.30;;;;;;10379289;28;20072;-53
2022/04/01 22:05:45;;;;;;;2.17;0.70;;;17.00;53.30;;;;;;10379057;28;20084;-52
2022/04/01 22:10:45;;;;;;;1.27;0.60;;;17.00;53.00;;;;;;10379237;28;20042;-52
2022/04/01 22:15:46;;;;;;;3.80;1.17;;;17.00;52.90;;;;;;10378527;28;20061;-52
2022/04/01 22:20:47;;;;;;;3.85;0.80;;;17.10;52.90;;;;;;10378453;28;20057;-52
2022/04/01 22:25:48;;;;;;;2.30;0.60;;;17.00;52.80;;;;;;10378184;28;20454;-52
2022/04/01 22:30:49;;;;;;;2.28;0.60;;;17.00;52.80;;;;;;10378231;28;20026;-51
2022/04/01 22:35:50;;;;;;;1.58;0.85;;;17.10;52.50;;;;;;10377879;28;20072;-53
2022/04/01 22:40:51;;;;;;;3.17;0.80;;;17.10;52.60;;;;;;10377370;28;20080;-52
2022/04/01 22:45:51;;;;;;;1.42;0.82;;;17.00;52.70;;;;;;10377456;28;20040;-51
2022/04/01 22:50:52;;;;;;;1.20;0.75;;;17.00;52.60;;;;;;10377633;28;20061;-52
2022/04/01 22:55:53;;;;;;;2.05;0.60;;;17.00;52.50;;;;;;10378463;28;20137;-48
2022/04/01 23:00:54;;;;;;;1.38;0.60;;;17.00;52.50;;;;;;10409347;28;20030;-50
2022/04/01 23:05:56;;;;;;;0.82;0.43;;;17.10;52.40;;;;;;10416987;28;20038;-52
2022/04/01 23:10:57;;;;;;;1.83;0.77;;;17.10;52.40;;;;;;10417299;28;20045;-53
2022/04/01 23:15:57;;;;;;;2.60;0.70;;;17.00;52.40;;;;;;10379633;28;20057;-51
2022/04/01 23:20:58;;;;;;;2.53;0.55;;;17.00;52.40;;;;;;10371620;28;20037;-51
2022/04/01 23:25:59;;;;;;;1.50;0.52;;;17.00;52.20;;;;;;10383999;28;20475;-51
2022/04/01 23:30:59;;;;;;;2.63;0.85;;;17.10;52.10;;;;;;10397080;28;20026;-49
2022/04/01 23:36:01;;;;;;;1.35;0.70;;;17.10;52.00;;;;;;10415458;28;20069;-51
2022/04/01 23:41:02;;;;;;;1.50;0.50;;;17.00;52.10;;;;;;10416274;28;20033;-50
2022/04/01 23:46:03;;;;;;;2.00;0.60;;;17.10;52.10;;;;;;10415289;28;20143;-49
2022/04/01 23:51:03;;;;;;;0.80;0.50;;;17.10;52.00;;;;;;10396927;28;20026;-51
2022/04/01 23:56:04;;;;;;;2.05;0.50;;;17.00;52.10;;;;;;10375372;28;20030;-51
